sensor_id;sensor_type;location;lat;lon;timestamp;P1;durP1;ratioP1;P2;durP2;ratioP2
63120;SDS011;54478;48.684;20.114;2024-01-15T00:00:17;11.77;;;5.88;;
63120;SDS011;54478;48.684;20.114;2024-01-15T00:02:46;15.82;;;6.10;;
63120;SDS011;54478;48.684;20.114;2024-01-15T00:05:14;11.15;;;5.95;;
63120;SDS011;54478;48.684;20.114;2024-01-15T00:07:42;13.82;;;6.25;;
63120;SDS011;54478;48.684;20.114;2024-01-15T00:10:08;7.55;;;3.65;;
63120;SDS011;54478;48.684;20.114;2024-01-15T00:12:36;12.15;;;5.65;;
63120;SDS011;54478;48.684;20.114;2024-01-15T00:15:04;11.35;;;6.07;;
63120;SDS011;54478;48.684;20.114;2024-01-15T00:17:32;11.45;;;5.57;;
63120;SDS011;54478;48.684;20.114;2024-01-15T00:20:00;7.57;;;3.53;;
63120;SDS011;54478;48.684;20.114;2024-01-15T00:22:28;10.85;;;4.95;;
63120;SDS011;54478;48.684;20.114;2024-01-15T00:24:56;11.85;;;5.68;;
63120;SDS011;54478;48.684;20.114;2024-01-15T00:27:24;14.05;;;6.45;;
63120;SDS011;54478;48.684;20.114;2024-01-15T00:29:52;13.48;;;5.90;;
63120;SDS011;54478;48.684;20.114;2024-01-15T00:32:21;11.00;;;5.78;;
63120;SDS011;54478;48.684;20.114;2024-01-15T00:34:49;15.77;;;7.30;;
63120;SDS011;54478;48.684;20.114;2024-01-15T00:37:18;11.90;;;5.20;;
63120;SDS011;54478;48.684;20.114;2024-01-15T00:39:46;15.23;;;6.82;;
63120;SDS011;54478;48.684;20.114;2024-01-15T00:42:14;11.48;;;5.75;;
63120;SDS011;54478;48.684;20.114;2024-01-15T00:44:42;8.63;;;6.20;;
63120;SDS011;54478;48.684;20.114;2024-01-15T00:47:10;11.63;;;5.80;;
63120;SDS011;54478;48.684;20.114;2024-01-15T00:49:39;11.45;;;5.25;;
63120;SDS011;54478;48.684;20.114;2024-01-15T00:52:07;11.85;;;5.65;;
63120;SDS011;54478;48.684;20.114;2024-01-15T00:54:35;10.75;;;4.72;;
63120;SDS011;54478;48.684;20.114;2024-01-15T00:57:03;17.08;;;6.43;;
63120;SDS011;54478;48.684;20.114;2024-01-15T00:59:32;9.73;;;5.07;;
63120;SDS011;54478;48.684;20.114;2024-01-15T01:02:00;16.63;;;5.82;;
63120;SDS011;54478;48.684;20.114;2024-01-15T01:04:28;17.38;;;7.65;;
63120;SDS011;54478;48.684;20.114;2024-01-15T01:06:56;9.82;;;6.30;;
63120;SDS011;54478;48.684;20.114;2024-01-15T01:09:21;11.25;;;4.55;;
63120;SDS011;54478;48.684;20.114;2024-01-15T01:11:50;14.75;;;7.13;;
63120;SDS011;54478;48.684;20.114;2024-01-15T01:14:18;14.50;;;6.75;;
63120;SDS011;54478;48.684;20.114;2024-01-15T01:16:46;13.65;;;5.18;;
63120;SDS011;54478;48.684;20.114;2024-01-15T01:19:14;10.73;;;5.70;;
63120;SDS011;54478;48.684;20.114;2024-01-15T01:21:42;12.23;;;5.68;;
63120;SDS011;54478;48.684;20.114;2024-01-15T01:24:10;15.25;;;7.05;;
63120;SDS011;54478;48.684;20.114;2024-01-15T01:26:38;11.10;;;6.22;;
63120;SDS011;54478;48.684;20.114;2024-01-15T01:29:06;18.02;;;8.00;;
63120;SDS011;54478;48.684;20.114;2024-01-15T01:31:34;16.23;;;6.93;;
63120;SDS011;54478;48.684;20.114;2024-01-15T01:34:02;10.73;;;7.35;;
63120;SDS011;54478;48.684;20.114;2024-01-15T01:36:31;10.15;;;4.53;;
63120;SDS011;54478;48.684;20.114;2024-01-15T01:38:59;14.57;;;5.80;;
63120;SDS011;54478;48.684;20.114;2024-01-15T01:41:27;12.23;;;6.30;;
63120;SDS011;54478;48.684;20.114;2024-01-15T01:43:55;12.60;;;6.28;;
63120;SDS011;54478;48.684;20.114;2024-01-15T01:46:24;13.80;;;6.00;;
63120;SDS011;54478;48.684;20.114;2024-01-15T01:48:54;17.80;;;7.35;;
63120;SDS011;54478;48.684;20.114;2024-01-15T01:51:23;18.75;;;6.80;;
63120;SDS011;54478;48.684;20.114;2024-01-15T01:53:52;20.23;;;7.00;;
63120;SDS011;54478;48.684;20.114;2024-01-15T01:56:20;15.32;;;6.93;;
63120;SDS011;54478;48.684;20.114;2024-01-15T01:58:48;14.00;;;7.93;;
63120;SDS011;54478;48.684;20.114;2024-01-15T02:01:16;16.85;;;8.02;;
63120;SDS011;54478;48.684;20.114;2024-01-15T02:03:45;17.10;;;7.70;;
63120;SDS011;54478;48.684;20.114;2024-01-15T02:06:13;12.27;;;6.05;;
63120;SDS011;54478;48.684;20.114;2024-01-15T02:08:43;14.07;;;6.75;;
63120;SDS011;54478;48.684;20.114;2024-01-15T02:11:11;14.95;;;7.47;;
63120;SDS011;54478;48.684;20.114;2024-01-15T02:13:39;17.58;;;6.72;;
63120;SDS011;54478;48.684;20.114;2024-01-15T02:16:07;18.75;;;7.60;;
63120;SDS011;54478;48.684;20.114;2024-01-15T02:18:42;16.27;;;7.75;;
63120;SDS011;54478;48.684;20.114;2024-01-15T02:21:08;14.48;;;6.70;;
63120;SDS011;54478;48.684;20.114;2024-01-15T02:23:37;13.15;;;6.25;;
63120;SDS011;54478;48.684;20.114;2024-01-15T02:26:05;17.80;;;7.40;;
63120;SDS011;54478;48.684;20.114;2024-01-15T02:28:34;24.13;;;8.68;;
63120;SDS011;54478;48.684;20.114;2024-01-15T02:31:02;13.88;;;6.82;;
63120;SDS011;54478;48.684;20.114;2024-01-15T02:33:30;16.25;;;8.63;;
63120;SDS011;54478;48.684;20.114;2024-01-15T02:35:58;18.65;;;6.43;;
63120;SDS011;54478;48.684;20.114;2024-01-15T02:38:26;16.88;;;7.97;;
63120;SDS011;54478;48.684;20.114;2024-01-15T02:40:54;18.55;;;8.40;;
63120;SDS011;54478;48.684;20.114;2024-01-15T02:43:22;15.23;;;7.63;;
63120;SDS011;54478;48.684;20.114;2024-01-15T02:45:50;14.25;;;7.43;;
63120;SDS011;54478;48.684;20.114;2024-01-15T02:48:18;18.80;;;8.95;;
63120;SDS011;54478;48.684;20.114;2024-01-15T02:50:46;14.00;;;6.10;;
63120;SDS011;54478;48.684;20.114;2024-01-15T02:53:14;15.27;;;6.85;;
63120;SDS011;54478;48.684;20.114;2024-01-15T02:55:42;13.68;;;7.60;;
63120;SDS011;54478;48.684;20.114;2024-01-15T02:58:10;16.70;;;7.75;;
63120;SDS011;54478;48.684;20.114;2024-01-15T03:00:38;16.83;;;7.13;;
63120;SDS011;54478;48.684;20.114;2024-01-15T03:03:06;12.13;;;6.45;;
63120;SDS011;54478;48.684;20.114;2024-01-15T03:05:34;18.35;;;7.50;;
63120;SDS011;54478;48.684;20.114;2024-01-15T03:08:03;14.77;;;7.43;;
63120;SDS011;54478;48.684;20.114;2024-01-15T03:10:28;12.45;;;6.03;;
63120;SDS011;54478;48.684;20.114;2024-01-15T03:12:56;13.32;;;6.70;;
63120;SDS011;54478;48.684;20.114;2024-01-15T03:15:25;28.80;;;12.63;;
63120;SDS011;54478;48.684;20.114;2024-01-15T03:17:53;28.15;;;12.73;;
63120;SDS011;54478;48.684;20.114;2024-01-15T03:20:21;22.95;;;11.88;;
63120;SDS011;54478;48.684;20.114;2024-01-15T03:22:49;18.55;;;9.52;;
63120;SDS011;54478;48.684;20.114;2024-01-15T03:25:17;15.88;;;7.70;;
63120;SDS011;54478;48.684;20.114;2024-01-15T03:27:45;11.65;;;6.03;;
63120;SDS011;54478;48.684;20.114;2024-01-15T03:30:13;10.23;;;5.03;;
63120;SDS011;54478;48.684;20.114;2024-01-15T03:32:41;12.30;;;5.80;;
63120;SDS011;54478;48.684;20.114;2024-01-15T03:35:09;30.20;;;13.95;;
63120;SDS011;54478;48.684;20.114;2024-01-15T03:37:37;32.30;;;10.38;;
63120;SDS011;54478;48.684;20.114;2024-01-15T03:40:05;14.95;;;5.80;;
63120;SDS011;54478;48.684;20.114;2024-01-15T03:42:34;11.80;;;5.57;;
63120;SDS011;54478;48.684;20.114;2024-01-15T03:45:02;11.77;;;6.40;;
63120;SDS011;54478;48.684;20.114;2024-01-15T03:47:30;13.27;;;6.65;;
63120;SDS011;54478;48.684;20.114;2024-01-15T03:49:58;11.20;;;5.63;;
63120;SDS011;54478;48.684;20.114;2024-01-15T03:52:26;11.32;;;5.82;;
63120;SDS011;54478;48.684;20.114;2024-01-15T03:54:54;28.25;;;7.13;;
63120;SDS011;54478;48.684;20.114;2024-01-15T03:57:22;23.75;;;8.75;;
63120;SDS011;54478;48.684;20.114;2024-01-15T03:59:50;22.27;;;11.82;;
63120;SDS011;54478;48.684;20.114;2024-01-15T04:02:19;19.60;;;8.80;;
63120;SDS011;54478;48.684;20.114;2024-01-15T04:04:47;18.13;;;7.18;;
63120;SDS011;54478;48.684;20.114;2024-01-15T04:07:15;20.45;;;9.07;;
63120;SDS011;54478;48.684;20.114;2024-01-15T04:09:40;16.15;;;7.32;;
63120;SDS011;54478;48.684;20.114;2024-01-15T04:12:08;18.65;;;8.25;;
63120;SDS011;54478;48.684;20.114;2024-01-15T04:14:36;9.00;;;5.55;;
63120;SDS011;54478;48.684;20.114;2024-01-15T04:17:04;13.20;;;7.07;;
63120;SDS011;54478;48.684;20.114;2024-01-15T04:19:32;17.10;;;7.00;;
63120;SDS011;54478;48.684;20.114;2024-01-15T04:22:00;13.25;;;6.03;;
63120;SDS011;54478;48.684;20.114;2024-01-15T04:24:28;14.27;;;6.70;;
63120;SDS011;54478;48.684;20.114;2024-01-15T04:26:56;13.60;;;6.00;;
63120;SDS011;54478;48.684;20.114;2024-01-15T04:29:24;8.98;;;5.55;;
63120;SDS011;54478;48.684;20.114;2024-01-15T04:31:53;12.93;;;6.25;;
63120;SDS011;54478;48.684;20.114;2024-01-15T04:34:21;17.30;;;5.68;;
63120;SDS011;54478;48.684;20.114;2024-01-15T04:36:49;19.63;;;9.60;;
63120;SDS011;54478;48.684;20.114;2024-01-15T04:39:17;14.43;;;7.25;;
63120;SDS011;54478;48.684;20.114;2024-01-15T04:41:46;14.68;;;6.30;;
63120;SDS011;54478;48.684;20.114;2024-01-15T04:44:14;12.68;;;7.35;;
63120;SDS011;54478;48.684;20.114;2024-01-15T04:46:42;15.15;;;7.40;;
63120;SDS011;54478;48.684;20.114;2024-01-15T04:49:11;23.45;;;6.40;;
63120;SDS011;54478;48.684;20.114;2024-01-15T04:51:40;23.38;;;9.27;;
63120;SDS011;54478;48.684;20.114;2024-01-15T04:54:08;16.58;;;8.38;;
63120;SDS011;54478;48.684;20.114;2024-01-15T04:56:36;23.83;;;10.32;;
63120;SDS011;54478;48.684;20.114;2024-01-15T04:59:05;30.65;;;12.13;;
63120;SDS011;54478;48.684;20.114;2024-01-15T05:01:33;34.45;;;11.43;;
63120;SDS011;54478;48.684;20.114;2024-01-15T05:04:01;26.83;;;12.15;;
63120;SDS011;54478;48.684;20.114;2024-01-15T05:06:29;27.33;;;11.35;;
63120;SDS011;54478;48.684;20.114;2024-01-15T05:08:54;23.17;;;10.93;;
63120;SDS011;54478;48.684;20.114;2024-01-15T05:11:22;26.27;;;11.52;;
63120;SDS011;54478;48.684;20.114;2024-01-15T05:13:50;27.27;;;12.70;;
63120;SDS011;54478;48.684;20.114;2024-01-15T05:16:18;36.40;;;12.80;;
63120;SDS011;54478;48.684;20.114;2024-01-15T05:18:46;23.77;;;10.32;;
63120;SDS011;54478;48.684;20.114;2024-01-15T05:21:14;20.38;;;8.82;;
63120;SDS011;54478;48.684;20.114;2024-01-15T05:23:43;23.65;;;8.77;;
63120;SDS011;54478;48.684;20.114;2024-01-15T05:26:11;12.63;;;7.13;;
63120;SDS011;54478;48.684;20.114;2024-01-15T05:28:40;18.63;;;9.18;;
63120;SDS011;54478;48.684;20.114;2024-01-15T05:31:09;16.20;;;8.48;;
63120;SDS011;54478;48.684;20.114;2024-01-15T05:33:37;26.52;;;11.95;;
63120;SDS011;54478;48.684;20.114;2024-01-15T05:36:05;34.85;;;15.85;;
63120;SDS011;54478;48.684;20.114;2024-01-15T05:38:34;19.33;;;9.25;;
63120;SDS011;54478;48.684;20.114;2024-01-15T05:41:02;22.50;;;9.82;;
63120;SDS011;54478;48.684;20.114;2024-01-15T05:43:30;29.02;;;13.05;;
63120;SDS011;54478;48.684;20.114;2024-01-15T05:45:58;27.50;;;12.57;;
63120;SDS011;54478;48.684;20.114;2024-01-15T05:48:26;23.15;;;9.27;;
63120;SDS011;54478;48.684;20.114;2024-01-15T05:50:54;14.60;;;8.27;;
63120;SDS011;54478;48.684;20.114;2024-01-15T05:53:22;24.80;;;11.73;;
63120;SDS011;54478;48.684;20.114;2024-01-15T05:55:51;37.70;;;11.48;;
63120;SDS011;54478;48.684;20.114;2024-01-15T05:58:19;43.80;;;17.33;;
63120;SDS011;54478;48.684;20.114;2024-01-15T06:00:47;67.68;;;28.00;;
63120;SDS011;54478;48.684;20.114;2024-01-15T06:03:16;80.25;;;31.00;;
63120;SDS011;54478;48.684;20.114;2024-01-15T06:05:44;150.25;;;85.53;;
63120;SDS011;54478;48.684;20.114;2024-01-15T06:08:12;117.47;;;45.08;;
63120;SDS011;54478;48.684;20.114;2024-01-15T06:10:37;138.65;;;88.82;;
63120;SDS011;54478;48.684;20.114;2024-01-15T06:13:05;86.55;;;50.75;;
63120;SDS011;54478;48.684;20.114;2024-01-15T06:15:33;59.78;;;36.05;;
63120;SDS011;54478;48.684;20.114;2024-01-15T06:18:01;42.30;;;31.52;;
63120;SDS011;54478;48.684;20.114;2024-01-15T06:20:30;37.40;;;18.05;;
63120;SDS011;54478;48.684;20.114;2024-01-15T06:22:58;18.80;;;15.50;;
63120;SDS011;54478;48.684;20.114;2024-01-15T06:25:26;29.17;;;23.48;;
63120;SDS011;54478;48.684;20.114;2024-01-15T06:27:54;38.92;;;20.75;;
63120;SDS011;54478;48.684;20.114;2024-01-15T06:30:22;32.42;;;14.93;;
63120;SDS011;54478;48.684;20.114;2024-01-15T06:32:51;50.85;;;18.77;;
63120;SDS011;54478;48.684;20.114;2024-01-15T06:35:19;24.27;;;11.10;;
63120;SDS011;54478;48.684;20.114;2024-01-15T06:37:47;35.15;;;20.75;;
63120;SDS011;54478;48.684;20.114;2024-01-15T06:40:12;44.92;;;36.63;;
63120;SDS011;54478;48.684;20.114;2024-01-15T06:42:40;49.33;;;44.13;;
63120;SDS011;54478;48.684;20.114;2024-01-15T06:45:09;58.30;;;52.33;;
63120;SDS011;54478;48.684;20.114;2024-01-15T06:47:35;51.38;;;45.05;;
63120;SDS011;54478;48.684;20.114;2024-01-15T06:50:03;38.80;;;27.33;;
63120;SDS011;54478;48.684;20.114;2024-01-15T06:52:35;42.63;;;38.17;;
63120;SDS011;54478;48.684;20.114;2024-01-15T06:55:03;54.72;;;49.75;;
63120;SDS011;54478;48.684;20.114;2024-01-15T06:57:31;72.07;;;65.75;;
63120;SDS011;54478;48.684;20.114;2024-01-15T06:59:59;35.15;;;32.10;;
63120;SDS011;54478;48.684;20.114;2024-01-15T07:02:27;52.97;;;47.30;;
63120;SDS011;54478;48.684;20.114;2024-01-15T07:04:55;75.40;;;68.00;;
63120;SDS011;54478;48.684;20.114;2024-01-15T07:07:23;64.40;;;58.33;;
63120;SDS011;54478;48.684;20.114;2024-01-15T07:09:49;87.97;;;79.85;;
63120;SDS011;54478;48.684;20.114;2024-01-15T07:12:19;69.40;;;62.40;;
63120;SDS011;54478;48.684;20.114;2024-01-15T07:14:47;92.43;;;84.05;;
63120;SDS011;54478;48.684;20.114;2024-01-15T07:17:15;75.90;;;68.32;;
63120;SDS011;54478;48.684;20.114;2024-01-15T07:19:43;94.97;;;86.57;;
63120;SDS011;54478;48.684;20.114;2024-01-15T07:22:11;101.05;;;91.15;;
63120;SDS011;54478;48.684;20.114;2024-01-15T07:24:40;118.65;;;108.05;;
63120;SDS011;54478;48.684;20.114;2024-01-15T07:27:08;121.15;;;108.65;;
63120;SDS011;54478;48.684;20.114;2024-01-15T07:29:37;85.35;;;77.43;;
63120;SDS011;54478;48.684;20.114;2024-01-15T07:32:05;111.35;;;100.65;;
63120;SDS011;54478;48.684;20.114;2024-01-15T07:34:33;81.15;;;60.65;;
63120;SDS011;54478;48.684;20.114;2024-01-15T07:37:01;53.53;;;43.33;;
63120;SDS011;54478;48.684;20.114;2024-01-15T07:39:30;48.08;;;42.67;;
63120;SDS011;54478;48.684;20.114;2024-01-15T07:41:58;51.90;;;43.25;;
63120;SDS011;54478;48.684;20.114;2024-01-15T07:44:24;56.95;;;51.15;;
63120;SDS011;54478;48.684;20.114;2024-01-15T07:46:50;52.30;;;47.60;;
63120;SDS011;54478;48.684;20.114;2024-01-15T07:49:18;63.05;;;57.78;;
63120;SDS011;54478;48.684;20.114;2024-01-15T07:51:44;58.53;;;53.53;;
63120;SDS011;54478;48.684;20.114;2024-01-15T07:54:12;63.60;;;56.90;;
63120;SDS011;54478;48.684;20.114;2024-01-15T07:56:59;71.75;;;64.47;;
63120;SDS011;54478;48.684;20.114;2024-01-15T07:59:27;113.65;;;104.25;;
63120;SDS011;54478;48.684;20.114;2024-01-15T08:01:53;139.15;;;121.45;;
63120;SDS011;54478;48.684;20.114;2024-01-15T08:04:21;148.93;;;133.35;;
63120;SDS011;54478;48.684;20.114;2024-01-15T08:06:52;99.95;;;90.05;;
63120;SDS011;54478;48.684;20.114;2024-01-15T08:09:17;87.45;;;79.80;;
63120;SDS011;54478;48.684;20.114;2024-01-15T08:11:45;101.43;;;91.82;;
63120;SDS011;54478;48.684;20.114;2024-01-15T08:14:14;91.43;;;83.30;;
63120;SDS011;54478;48.684;20.114;2024-01-15T08:16:42;106.95;;;98.00;;
63120;SDS011;54478;48.684;20.114;2024-01-15T08:19:11;103.93;;;94.55;;
63120;SDS011;54478;48.684;20.114;2024-01-15T08:21:39;69.80;;;63.13;;
63120;SDS011;54478;48.684;20.114;2024-01-15T08:24:08;67.25;;;61.05;;
63120;SDS011;54478;48.684;20.114;2024-01-15T08:26:36;57.80;;;52.33;;
63120;SDS011;54478;48.684;20.114;2024-01-15T08:29:04;86.25;;;77.63;;
63120;SDS011;54478;48.684;20.114;2024-01-15T08:31:32;123.38;;;111.90;;
63120;SDS011;54478;48.684;20.114;2024-01-15T08:34:00;41.83;;;37.45;;
63120;SDS011;54478;48.684;20.114;2024-01-15T08:36:29;86.18;;;77.75;;
63120;SDS011;54478;48.684;20.114;2024-01-15T08:38:58;97.10;;;88.18;;
63120;SDS011;54478;48.684;20.114;2024-01-15T08:41:26;149.93;;;136.18;;
63120;SDS011;54478;48.684;20.114;2024-01-15T08:43:54;140.32;;;126.90;;
63120;SDS011;54478;48.684;20.114;2024-01-15T08:46:22;132.15;;;119.65;;
63120;SDS011;54478;48.684;20.114;2024-01-15T08:48:52;143.85;;;130.45;;
63120;SDS011;54478;48.684;20.114;2024-01-15T08:51:23;154.98;;;140.32;;
63120;SDS011;54478;48.684;20.114;2024-01-15T08:53:51;157.35;;;142.60;;
63120;SDS011;54478;48.684;20.114;2024-01-15T08:56:19;157.13;;;141.85;;
63120;SDS011;54478;48.684;20.114;2024-01-15T08:58:47;160.43;;;145.57;;
63120;SDS011;54478;48.684;20.114;2024-01-15T09:01:16;161.07;;;146.15;;
63120;SDS011;54478;48.684;20.114;2024-01-15T09:03:44;148.00;;;133.77;;
63120;SDS011;54478;48.684;20.114;2024-01-15T09:06:13;154.40;;;138.68;;
63120;SDS011;54478;48.684;20.114;2024-01-15T09:08:41;151.02;;;136.27;;
63120;SDS011;54478;48.684;20.114;2024-01-15T09:11:09;163.90;;;147.85;;
63120;SDS011;54478;48.684;20.114;2024-01-15T09:13:37;165.40;;;150.32;;
63120;SDS011;54478;48.684;20.114;2024-01-15T09:16:05;142.52;;;129.65;;
63120;SDS011;54478;48.684;20.114;2024-01-15T09:18:33;125.25;;;113.03;;
63120;SDS011;54478;48.684;20.114;2024-01-15T09:21:01;130.85;;;118.18;;
63120;SDS011;54478;48.684;20.114;2024-01-15T09:23:33;88.43;;;80.15;;
63120;SDS011;54478;48.684;20.114;2024-01-15T09:26:01;101.63;;;91.13;;
63120;SDS011;54478;48.684;20.114;2024-01-15T09:28:29;97.45;;;87.57;;
63120;SDS011;54478;48.684;20.114;2024-01-15T09:30:57;94.57;;;84.97;;
63120;SDS011;54478;48.684;20.114;2024-01-15T09:33:23;96.75;;;87.57;;
63120;SDS011;54478;48.684;20.114;2024-01-15T09:35:52;92.47;;;83.38;;
63120;SDS011;54478;48.684;20.114;2024-01-15T09:38:20;103.00;;;92.30;;
63120;SDS011;54478;48.684;20.114;2024-01-15T09:40:48;110.28;;;99.40;;
63120;SDS011;54478;48.684;20.114;2024-01-15T09:43:16;90.18;;;81.57;;
63120;SDS011;54478;48.684;20.114;2024-01-15T09:45:44;88.35;;;79.38;;
63120;SDS011;54478;48.684;20.114;2024-01-15T09:48:13;85.53;;;76.90;;
63120;SDS011;54478;48.684;20.114;2024-01-15T09:50:39;57.78;;;52.22;;
63120;SDS011;54478;48.684;20.114;2024-01-15T09:53:07;86.43;;;77.30;;
63120;SDS011;54478;48.684;20.114;2024-01-15T09:55:37;85.38;;;76.53;;
63120;SDS011;54478;48.684;20.114;2024-01-15T09:58:08;149.38;;;134.00;;
63120;SDS011;54478;48.684;20.114;2024-01-15T10:00:38;158.10;;;141.40;;
63120;SDS011;54478;48.684;20.114;2024-01-15T10:03:09;158.43;;;140.90;;
63120;SDS011;54478;48.684;20.114;2024-01-15T10:05:39;155.57;;;139.13;;
63120;SDS011;54478;48.684;20.114;2024-01-15T10:08:07;109.85;;;98.88;;
63120;SDS011;54478;48.684;20.114;2024-01-15T10:10:32;88.43;;;76.32;;
63120;SDS011;54478;48.684;20.114;2024-01-15T10:13:01;103.82;;;94.07;;
63120;SDS011;54478;48.684;20.114;2024-01-15T10:15:29;44.25;;;29.02;;
63120;SDS011;54478;48.684;20.114;2024-01-15T10:17:57;22.23;;;10.55;;
63120;SDS011;54478;48.684;20.114;2024-01-15T10:20:25;29.42;;;10.32;;
63120;SDS011;54478;48.684;20.114;2024-01-15T10:22:53;22.25;;;8.32;;
63120;SDS011;54478;48.684;20.114;2024-01-15T10:25:21;29.15;;;11.27;;
63120;SDS011;54478;48.684;20.114;2024-01-15T10:28:00;22.83;;;8.90;;
63120;SDS011;54478;48.684;20.114;2024-01-15T10:30:26;24.60;;;8.63;;
63120;SDS011;54478;48.684;20.114;2024-01-15T10:32:59;20.13;;;10.38;;
63120;SDS011;54478;48.684;20.114;2024-01-15T10:37:56;17.42;;;8.18;;
63120;SDS011;54478;48.684;20.114;2024-01-15T10:40:24;17.27;;;7.35;;
63120;SDS011;54478;48.684;20.114;2024-01-15T10:42:53;22.00;;;6.97;;
63120;SDS011;54478;48.684;20.114;2024-01-15T10:45:22;12.30;;;6.20;;
63120;SDS011;54478;48.684;20.114;2024-01-15T10:47:50;27.95;;;10.60;;
63120;SDS011;54478;48.684;20.114;2024-01-15T10:50:18;30.98;;;11.07;;
63120;SDS011;54478;48.684;20.114;2024-01-15T10:52:44;27.73;;;10.65;;
63120;SDS011;54478;48.684;20.114;2024-01-15T10:55:13;14.45;;;7.43;;
63120;SDS011;54478;48.684;20.114;2024-01-15T10:57:40;34.47;;;13.50;;
63120;SDS011;54478;48.684;20.114;2024-01-15T11:00:08;32.50;;;9.05;;
63120;SDS011;54478;48.684;20.114;2024-01-15T11:02:40;22.75;;;8.10;;
63120;SDS011;54478;48.684;20.114;2024-01-15T11:05:08;30.08;;;8.80;;
63120;SDS011;54478;48.684;20.114;2024-01-15T11:07:36;28.20;;;10.77;;
63120;SDS011;54478;48.684;20.114;2024-01-15T11:10:04;23.98;;;9.68;;
63120;SDS011;54478;48.684;20.114;2024-01-15T11:12:33;23.08;;;8.90;;
63120;SDS011;54478;48.684;20.114;2024-01-15T11:15:02;18.67;;;9.05;;
63120;SDS011;54478;48.684;20.114;2024-01-15T11:20:22;27.20;;;8.90;;
63120;SDS011;54478;48.684;20.114;2024-01-15T11:22:48;20.60;;;9.98;;
63120;SDS011;54478;48.684;20.114;2024-01-15T11:25:18;23.83;;;9.25;;
63120;SDS011;54478;48.684;20.114;2024-01-15T11:27:47;37.97;;;14.10;;
63120;SDS011;54478;48.684;20.114;2024-01-15T11:30:15;17.50;;;7.07;;
63120;SDS011;54478;48.684;20.114;2024-01-15T11:32:43;21.88;;;10.80;;
63120;SDS011;54478;48.684;20.114;2024-01-15T11:35:14;14.93;;;7.72;;
63120;SDS011;54478;48.684;20.114;2024-01-15T11:40:22;19.02;;;7.75;;
63120;SDS011;54478;48.684;20.114;2024-01-15T11:42:48;20.80;;;6.47;;
63120;SDS011;54478;48.684;20.114;2024-01-15T11:45:18;16.67;;;5.55;;
63120;SDS011;54478;48.684;20.114;2024-01-15T11:50:31;15.38;;;7.72;;
63120;SDS011;54478;48.684;20.114;2024-01-15T11:53:00;16.55;;;6.10;;
63120;SDS011;54478;48.684;20.114;2024-01-15T11:55:36;14.88;;;7.20;;
63120;SDS011;54478;48.684;20.114;2024-01-15T11:58:07;25.98;;;10.18;;
63120;SDS011;54478;48.684;20.114;2024-01-15T12:00:33;16.52;;;7.10;;
63120;SDS011;54478;48.684;20.114;2024-01-15T12:03:04;16.45;;;7.05;;
63120;SDS011;54478;48.684;20.114;2024-01-15T12:05:32;32.53;;;9.90;;
63120;SDS011;54478;48.684;20.114;2024-01-15T12:08:00;12.70;;;6.28;;
63120;SDS011;54478;48.684;20.114;2024-01-15T12:10:26;5.50;;;2.25;;
63120;SDS011;54478;48.684;20.114;2024-01-15T12:13:11;12.82;;;3.83;;
63120;SDS011;54478;48.684;20.114;2024-01-15T12:15:37;9.93;;;3.72;;
63120;SDS011;54478;48.684;20.114;2024-01-15T12:18:07;7.45;;;3.80;;
63120;SDS011;54478;48.684;20.114;2024-01-15T12:20:36;6.68;;;2.67;;
63120;SDS011;54478;48.684;20.114;2024-01-15T12:23:04;7.43;;;3.30;;
63120;SDS011;54478;48.684;20.114;2024-01-15T12:25:33;10.50;;;4.35;;
63120;SDS011;54478;48.684;20.114;2024-01-15T12:28:02;10.60;;;3.50;;
63120;SDS011;54478;48.684;20.114;2024-01-15T12:30:30;12.27;;;3.97;;
63120;SDS011;54478;48.684;20.114;2024-01-15T12:33:02;8.83;;;3.37;;
63120;SDS011;54478;48.684;20.114;2024-01-15T12:35:33;11.93;;;4.43;;
63120;SDS011;54478;48.684;20.114;2024-01-15T12:38:01;14.48;;;3.92;;
63120;SDS011;54478;48.684;20.114;2024-01-15T12:40:32;7.88;;;2.70;;
63120;SDS011;54478;48.684;20.114;2024-01-15T12:43:02;7.72;;;3.33;;
63120;SDS011;54478;48.684;20.114;2024-01-15T12:45:30;9.13;;;3.47;;
63120;SDS011;54478;48.684;20.114;2024-01-15T12:47:58;6.05;;;2.50;;
63120;SDS011;54478;48.684;20.114;2024-01-15T12:50:28;11.05;;;3.33;;
63120;SDS011;54478;48.684;20.114;2024-01-15T12:52:56;9.23;;;3.40;;
63120;SDS011;54478;48.684;20.114;2024-01-15T12:55:24;6.80;;;2.55;;
63120;SDS011;54478;48.684;20.114;2024-01-15T12:57:52;7.70;;;2.97;;
63120;SDS011;54478;48.684;20.114;2024-01-15T13:00:22;8.10;;;3.17;;
63120;SDS011;54478;48.684;20.114;2024-01-15T13:02:50;7.07;;;2.58;;
63120;SDS011;54478;48.684;20.114;2024-01-15T13:05:18;9.80;;;3.83;;
63120;SDS011;54478;48.684;20.114;2024-01-15T13:07:48;4.82;;;2.58;;
63120;SDS011;54478;48.684;20.114;2024-01-15T13:10:13;7.05;;;3.00;;
63120;SDS011;54478;48.684;20.114;2024-01-15T13:12:41;5.80;;;2.67;;
63120;SDS011;54478;48.684;20.114;2024-01-15T13:15:09;6.20;;;2.40;;
63120;SDS011;54478;48.684;20.114;2024-01-15T13:17:39;11.93;;;4.45;;
63120;SDS011;54478;48.684;20.114;2024-01-15T13:20:08;8.38;;;4.38;;
63120;SDS011;54478;48.684;20.114;2024-01-15T13:22:36;10.07;;;4.47;;
63120;SDS011;54478;48.684;20.114;2024-01-15T13:25:07;11.77;;;4.22;;
63120;SDS011;54478;48.684;20.114;2024-01-15T13:27:37;14.10;;;3.65;;
63120;SDS011;54478;48.684;20.114;2024-01-15T13:30:05;14.38;;;5.35;;
63120;SDS011;54478;48.684;20.114;2024-01-15T13:32:35;16.23;;;6.00;;
63120;SDS011;54478;48.684;20.114;2024-01-15T13:35:03;14.07;;;4.82;;
63120;SDS011;54478;48.684;20.114;2024-01-15T13:37:35;11.70;;;5.57;;
63120;SDS011;54478;48.684;20.114;2024-01-15T13:40:05;12.57;;;4.82;;
63120;SDS011;54478;48.684;20.114;2024-01-15T13:42:35;6.72;;;2.70;;
63120;SDS011;54478;48.684;20.114;2024-01-15T13:45:06;7.85;;;3.38;;
63120;SDS011;54478;48.684;20.114;2024-01-15T13:47:33;7.10;;;2.72;;
63120;SDS011;54478;48.684;20.114;2024-01-15T13:50:01;10.13;;;2.95;;
63120;SDS011;54478;48.684;20.114;2024-01-15T13:52:29;9.00;;;3.50;;
63120;SDS011;54478;48.684;20.114;2024-01-15T13:54:57;7.18;;;3.00;;
63120;SDS011;54478;48.684;20.114;2024-01-15T13:57:25;8.15;;;3.15;;
63120;SDS011;54478;48.684;20.114;2024-01-15T13:59:53;5.43;;;2.80;;
63120;SDS011;54478;48.684;20.114;2024-01-15T14:02:21;12.07;;;4.03;;
63120;SDS011;54478;48.684;20.114;2024-01-15T14:04:49;10.15;;;3.63;;
63120;SDS011;54478;48.684;20.114;2024-01-15T14:07:17;31.75;;;7.05;;
63120;SDS011;54478;48.684;20.114;2024-01-15T14:09:43;13.98;;;5.55;;
63120;SDS011;54478;48.684;20.114;2024-01-15T14:12:11;10.70;;;3.17;;
63120;SDS011;54478;48.684;20.114;2024-01-15T14:14:39;7.20;;;3.10;;
63120;SDS011;54478;48.684;20.114;2024-01-15T14:17:08;6.68;;;3.33;;
63120;SDS011;54478;48.684;20.114;2024-01-15T14:19:36;7.10;;;3.45;;
63120;SDS011;54478;48.684;20.114;2024-01-15T14:22:05;11.63;;;4.53;;
63120;SDS011;54478;48.684;20.114;2024-01-15T14:24:34;13.48;;;5.40;;
63120;SDS011;54478;48.684;20.114;2024-01-15T14:27:02;9.40;;;4.63;;
63120;SDS011;54478;48.684;20.114;2024-01-15T14:29:30;14.82;;;4.78;;
63120;SDS011;54478;48.684;20.114;2024-01-15T14:31:59;14.60;;;5.57;;